Bleiblerville, Texas
Current Conditions -  °F | °C
As of 4:35 AM on Thursday 23 Oct 2014 (Local Time) from K11R Reporting Station
Light Rain Light Rain  
Wind Chill: 66°   Ceiling: Unl
Heat Index: 66°   Visibility: 10mi
Dew Point: 58°   Wind: 8mph
Humidity: 76%   Direction: 100°E
Pressure: 30.08"   Gusts: NA
Location:  30.01°N, 96.45°W
Report Text: K11R 230935Z AUTO 10007KT 10SM -RA CLR 19/14 A3008 RMK AO2 T01870144
Loading
Personal Weather Stations






























Interactive Weather Map
Tropical Storm Tracking
New forecast layout! Learn more

10-Day Weather Forecast

Advertisements
Track Severe Weather on mobile